sensor_id;sensor_type;location;lat;lon;timestamp;temperature;humidity
24632;DHT22;59977;48.782;9.190;2022-09-01T00:02:12;18.90;99.90
24632;DHT22;59977;48.782;9.190;2022-09-01T00:04:40;18.80;99.90
24632;DHT22;59977;48.782;9.190;2022-09-01T00:07:08;18.80;99.90
24632;DHT22;59977;48.782;9.190;2022-09-01T00:09:34;18.90;99.90
24632;DHT22;59977;48.782;9.190;2022-09-01T00:12:01;18.90;99.90
24632;DHT22;59977;48.782;9.190;2022-09-01T00:14:31;18.80;99.90
24632;DHT22;59977;48.782;9.190;2022-09-01T00:16:59;18.60;99.90
24632;DHT22;59977;48.782;9.190;2022-09-01T00:19:25;18.50;99.90
24632;DHT22;59977;48.782;9.190;2022-09-01T00:21:51;18.50;99.90
24632;DHT22;59977;48.782;9.190;2022-09-01T00:24:18;18.50;99.90
24632;DHT22;59977;48.782;9.190;2022-09-01T00:26:44;18.60;99.90
24632;DHT22;59977;48.782;9.190;2022-09-01T00:29:10;18.60;99.90
24632;DHT22;59977;48.782;9.190;2022-09-01T00:31:36;18.60;99.90
24632;DHT22;59977;48.782;9.190;2022-09-01T00:34:02;18.60;99.90
24632;DHT22;59977;48.782;9.190;2022-09-01T00:36:28;18.70;99.90
24632;DHT22;59977;48.782;9.190;2022-09-01T00:38:54;18.60;99.90
24632;DHT22;59977;48.782;9.190;2022-09-01T00:41:22;18.60;99.90
24632;DHT22;59977;48.782;9.190;2022-09-01T00:43:55;18.60;99.90
24632;DHT22;59977;48.782;9.190;2022-09-01T00:46:25;18.60;99.90
24632;DHT22;59977;48.782;9.190;2022-09-01T00:48:58;18.60;99.90
24632;DHT22;59977;48.782;9.190;2022-09-01T00:51:27;18.50;99.90
24632;DHT22;59977;48.782;9.190;2022-09-01T00:53:54;18.50;99.90
24632;DHT22;59977;48.782;9.190;2022-09-01T00:56:22;18.50;99.90
24632;DHT22;59977;48.782;9.190;2022-09-01T00:58:49;18.40;99.90
24632;DHT22;59977;48.782;9.190;2022-09-01T01:01:16;18.40;99.90
24632;DHT22;59977;48.782;9.190;2022-09-01T01:03:42;18.40;99.90
24632;DHT22;59977;48.782;9.190;2022-09-01T01:06:12;18.30;99.90
24632;DHT22;59977;48.782;9.190;2022-09-01T01:08:42;18.30;99.90
24632;DHT22;59977;48.782;9.190;2022-09-01T01:11:15;18.30;99.90
24632;DHT22;59977;48.782;9.190;2022-09-01T01:14:07;18.30;99.90
24632;DHT22;59977;48.782;9.190;2022-09-01T01:16:41;18.30;99.90
24632;DHT22;59977;48.782;9.190;2022-09-01T01:22:03;18.30;99.90
24632;DHT22;59977;48.782;9.190;2022-09-01T01:24:49;18.20;99.90
24632;DHT22;59977;48.782;9.190;2022-09-01T01:27:16;18.20;99.90
24632;DHT22;59977;48.782;9.190;2022-09-01T01:29:46;18.20;99.90
24632;DHT22;59977;48.782;9.190;2022-09-01T01:32:13;18.10;99.90
24632;DHT22;59977;48.782;9.190;2022-09-01T01:34:39;18.10;99.90
24632;DHT22;59977;48.782;9.190;2022-09-01T01:37:07;18.00;99.90
24632;DHT22;59977;48.782;9.190;2022-09-01T01:39:35;18.20;99.90
24632;DHT22;59977;48.782;9.190;2022-09-01T01:42:05;18.20;99.90
24632;DHT22;59977;48.782;9.190;2022-09-01T01:44:32;18.20;99.90
24632;DHT22;59977;48.782;9.190;2022-09-01T01:46:58;18.30;99.90
24632;DHT22;59977;48.782;9.190;2022-09-01T01:49:26;18.30;99.90
24632;DHT22;59977;48.782;9.190;2022-09-01T01:51:53;18.30;99.90
24632;DHT22;59977;48.782;9.190;2022-09-01T01:54:21;18.30;99.90
24632;DHT22;59977;48.782;9.190;2022-09-01T01:56:47;18.30;99.90
24632;DHT22;59977;48.782;9.190;2022-09-01T01:59:13;18.30;99.90
24632;DHT22;59977;48.782;9.190;2022-09-01T02:01:43;18.20;99.90
24632;DHT22;59977;48.782;9.190;2022-09-01T02:04:13;18.20;99.90
24632;DHT22;59977;48.782;9.190;2022-09-01T02:06:42;18.30;99.90
24632;DHT22;59977;48.782;9.190;2022-09-01T02:09:11;18.10;99.90
24632;DHT22;59977;48.782;9.190;2022-09-01T02:11:37;18.10;99.90
24632;DHT22;59977;48.782;9.190;2022-09-01T02:14:05;18.10;99.90
24632;DHT22;59977;48.782;9.190;2022-09-01T02:16:32;18.00;99.90
24632;DHT22;59977;48.782;9.190;2022-09-01T02:18:59;18.00;99.90
24632;DHT22;59977;48.782;9.190;2022-09-01T02:21:25;18.00;99.90
24632;DHT22;59977;48.782;9.190;2022-09-01T02:24:03;18.00;99.90
24632;DHT22;59977;48.782;9.190;2022-09-01T02:26:36;18.00;99.90
24632;DHT22;59977;48.782;9.190;2022-09-01T02:29:06;18.00;99.90
24632;DHT22;59977;48.782;9.190;2022-09-01T02:31:35;17.90;99.90
24632;DHT22;59977;48.782;9.190;2022-09-01T02:34:04;17.90;99.90
24632;DHT22;59977;48.782;9.190;2022-09-01T02:36:36;17.80;99.90
24632;DHT22;59977;48.782;9.190;2022-09-01T02:39:05;17.90;99.90
24632;DHT22;59977;48.782;9.190;2022-09-01T02:41:31;17.90;99.90
24632;DHT22;59977;48.782;9.190;2022-09-01T02:43:59;17.80;99.90
24632;DHT22;59977;48.782;9.190;2022-09-01T02:46:27;17.70;99.90
24632;DHT22;59977;48.782;9.190;2022-09-01T02:48:54;17.60;99.90
24632;DHT22;59977;48.782;9.190;2022-09-01T02:51:22;17.60;99.90
24632;DHT22;59977;48.782;9.190;2022-09-01T02:53:50;17.60;99.90
24632;DHT22;59977;48.782;9.190;2022-09-01T02:56:19;17.60;99.90
24632;DHT22;59977;48.782;9.190;2022-09-01T02:58:49;17.60;99.90
24632;DHT22;59977;48.782;9.190;2022-09-01T03:01:18;17.60;99.90
24632;DHT22;59977;48.782;9.190;2022-09-01T03:03:46;17.60;99.90
24632;DHT22;59977;48.782;9.190;2022-09-01T03:06:12;17.60;99.90
24632;DHT22;59977;48.782;9.190;2022-09-01T03:08:39;17.60;99.90
24632;DHT22;59977;48.782;9.190;2022-09-01T03:11:06;17.60;99.90
24632;DHT22;59977;48.782;9.190;2022-09-01T03:13:37;17.60;99.90
24632;DHT22;59977;48.782;9.190;2022-09-01T03:16:05;17.50;99.90
24632;DHT22;59977;48.782;9.190;2022-09-01T03:18:31;17.60;99.90
24632;DHT22;59977;48.782;9.190;2022-09-01T03:20:57;17.50;99.90
24632;DHT22;59977;48.782;9.190;2022-09-01T03:23:23;17.50;99.90
24632;DHT22;59977;48.782;9.190;2022-09-01T03:25:50;17.40;99.90
24632;DHT22;59977;48.782;9.190;2022-09-01T03:28:16;17.40;99.90
24632;DHT22;59977;48.782;9.190;2022-09-01T03:30:53;17.40;99.90
24632;DHT22;59977;48.782;9.190;2022-09-01T03:33:20;17.40;99.90
24632;DHT22;59977;48.782;9.190;2022-09-01T03:35:47;17.40;99.90
24632;DHT22;59977;48.782;9.190;2022-09-01T03:38:14;17.30;99.90
24632;DHT22;59977;48.782;9.190;2022-09-01T03:40:47;17.30;99.90
24632;DHT22;59977;48.782;9.190;2022-09-01T03:43:13;17.20;99.90
24632;DHT22;59977;48.782;9.190;2022-09-01T03:45:41;17.20;99.90
24632;DHT22;59977;48.782;9.190;2022-09-01T03:48:08;17.20;99.90
24632;DHT22;59977;48.782;9.190;2022-09-01T03:50:39;17.20;99.90
24632;DHT22;59977;48.782;9.190;2022-09-01T03:53:10;17.20;99.90
24632;DHT22;59977;48.782;9.190;2022-09-01T03:55:36;17.10;99.90
24632;DHT22;59977;48.782;9.190;2022-09-01T03:58:08;17.10;99.90
24632;DHT22;59977;48.782;9.190;2022-09-01T04:00:41;17.10;99.90
24632;DHT22;59977;48.782;9.190;2022-09-01T04:03:09;17.10;99.90
24632;DHT22;59977;48.782;9.190;2022-09-01T04:05:38;17.10;99.90
24632;DHT22;59977;48.782;9.190;2022-09-01T04:08:07;17.20;99.90
24632;DHT22;59977;48.782;9.190;2022-09-01T04:10:41;17.20;99.90
24632;DHT22;59977;48.782;9.190;2022-09-01T04:13:10;16.90;99.90
24632;DHT22;59977;48.782;9.190;2022-09-01T04:15:37;16.80;99.90
24632;DHT22;59977;48.782;9.190;2022-09-01T04:18:03;16.60;99.90
24632;DHT22;59977;48.782;9.190;2022-09-01T04:20:34;16.80;99.90
24632;DHT22;59977;48.782;9.190;2022-09-01T04:23:15;16.80;99.90
24632;DHT22;59977;48.782;9.190;2022-09-01T04:25:49;16.90;99.90
24632;DHT22;59977;48.782;9.190;2022-09-01T04:28:16;17.00;99.90
24632;DHT22;59977;48.782;9.190;2022-09-01T04:30:57;17.20;99.90
24632;DHT22;59977;48.782;9.190;2022-09-01T04:33:27;17.10;99.90
24632;DHT22;59977;48.782;9.190;2022-09-01T04:35:59;17.20;99.90
24632;DHT22;59977;48.782;9.190;2022-09-01T04:38:25;17.20;99.90
24632;DHT22;59977;48.782;9.190;2022-09-01T04:40:54;17.10;99.90
24632;DHT22;59977;48.782;9.190;2022-09-01T04:43:22;17.20;99.90
24632;DHT22;59977;48.782;9.190;2022-09-01T04:45:48;17.20;99.90
24632;DHT22;59977;48.782;9.190;2022-09-01T04:48:17;17.20;99.90
24632;DHT22;59977;48.782;9.190;2022-09-01T04:50:43;17.20;99.90
24632;DHT22;59977;48.782;9.190;2022-09-01T04:53:09;17.20;99.90
24632;DHT22;59977;48.782;9.190;2022-09-01T04:55:39;17.20;99.90
24632;DHT22;59977;48.782;9.190;2022-09-01T04:58:05;17.20;99.90
24632;DHT22;59977;48.782;9.190;2022-09-01T05:00:31;17.30;99.90
24632;DHT22;59977;48.782;9.190;2022-09-01T05:03:02;17.30;99.90
24632;DHT22;59977;48.782;9.190;2022-09-01T05:05:36;17.20;99.90
24632;DHT22;59977;48.782;9.190;2022-09-01T05:08:08;17.10;99.90
24632;DHT22;59977;48.782;9.190;2022-09-01T05:10:40;17.10;99.90
24632;DHT22;59977;48.782;9.190;2022-09-01T05:13:08;17.20;99.90
24632;DHT22;59977;48.782;9.190;2022-09-01T05:15:36;17.30;99.90
24632;DHT22;59977;48.782;9.190;2022-09-01T05:18:03;17.40;99.90
24632;DHT22;59977;48.782;9.190;2022-09-01T05:20:37;17.40;99.90
24632;DHT22;59977;48.782;9.190;2022-09-01T05:23:04;17.40;99.90
24632;DHT22;59977;48.782;9.190;2022-09-01T05:25:30;17.40;99.90
24632;DHT22;59977;48.782;9.190;2022-09-01T05:27:55;17.40;99.90
24632;DHT22;59977;48.782;9.190;2022-09-01T05:30:21;17.50;99.90
24632;DHT22;59977;48.782;9.190;2022-09-01T05:32:48;17.50;99.90
24632;DHT22;59977;48.782;9.190;2022-09-01T05:35:15;17.40;99.90
24632;DHT22;59977;48.782;9.190;2022-09-01T05:37:41;17.30;99.90
24632;DHT22;59977;48.782;9.190;2022-09-01T05:40:09;17.30;99.90
24632;DHT22;59977;48.782;9.190;2022-09-01T05:42:43;17.20;99.90
24632;DHT22;59977;48.782;9.190;2022-09-01T05:45:09;17.10;99.90
24632;DHT22;59977;48.782;9.190;2022-09-01T05:47:39;17.00;99.90
24632;DHT22;59977;48.782;9.190;2022-09-01T05:50:06;16.90;99.90
24632;DHT22;59977;48.782;9.190;2022-09-01T05:52:37;16.80;99.90
24632;DHT22;59977;48.782;9.190;2022-09-01T05:55:04;16.90;99.90
24632;DHT22;59977;48.782;9.190;2022-09-01T05:57:34;16.90;99.90
24632;DHT22;59977;48.782;9.190;2022-09-01T06:00:00;17.00;99.90
24632;DHT22;59977;48.782;9.190;2022-09-01T06:02:26;17.00;99.90
24632;DHT22;59977;48.782;9.190;2022-09-01T06:04:53;17.00;99.90
24632;DHT22;59977;48.782;9.190;2022-09-01T06:07:20;17.00;99.90
24632;DHT22;59977;48.782;9.190;2022-09-01T06:09:48;17.10;99.90
24632;DHT22;59977;48.782;9.190;2022-09-01T06:12:15;17.30;99.90
24632;DHT22;59977;48.782;9.190;2022-09-01T06:14:49;17.40;99.90
24632;DHT22;59977;48.782;9.190;2022-09-01T06:17:17;17.90;99.90
24632;DHT22;59977;48.782;9.190;2022-09-01T06:19:50;17.70;99.90
24632;DHT22;59977;48.782;9.190;2022-09-01T06:22:17;17.50;99.90
24632;DHT22;59977;48.782;9.190;2022-09-01T06:24:43;17.40;99.90
24632;DHT22;59977;48.782;9.190;2022-09-01T06:27:09;17.40;99.90
24632;DHT22;59977;48.782;9.190;2022-09-01T06:29:37;17.60;99.90
24632;DHT22;59977;48.782;9.190;2022-09-01T06:32:07;17.60;99.90
24632;DHT22;59977;48.782;9.190;2022-09-01T06:34:35;17.70;99.90
24632;DHT22;59977;48.782;9.190;2022-09-01T06:37:03;17.80;99.90
24632;DHT22;59977;48.782;9.190;2022-09-01T06:39:28;17.90;99.90
24632;DHT22;59977;48.782;9.190;2022-09-01T06:41:56;17.90;99.90
24632;DHT22;59977;48.782;9.190;2022-09-01T06:44:22;18.00;99.90
24632;DHT22;59977;48.782;9.190;2022-09-01T06:46:49;18.00;99.90
24632;DHT22;59977;48.782;9.190;2022-09-01T06:49:15;17.90;99.90
24632;DHT22;59977;48.782;9.190;2022-09-01T06:51:41;18.00;99.90
24632;DHT22;59977;48.782;9.190;2022-09-01T06:54:07;18.10;99.90
24632;DHT22;59977;48.782;9.190;2022-09-01T06:56:33;18.30;99.90
24632;DHT22;59977;48.782;9.190;2022-09-01T06:59:00;18.20;99.90
24632;DHT22;59977;48.782;9.190;2022-09-01T07:01:30;18.20;99.90
24632;DHT22;59977;48.782;9.190;2022-09-01T07:03:56;18.10;99.90
24632;DHT22;59977;48.782;9.190;2022-09-01T07:06:23;18.30;99.90
24632;DHT22;59977;48.782;9.190;2022-09-01T07:08:54;18.50;99.90
24632;DHT22;59977;48.782;9.190;2022-09-01T07:11:23;18.70;99.90
24632;DHT22;59977;48.782;9.190;2022-09-01T07:13:51;18.70;99.90
24632;DHT22;59977;48.782;9.190;2022-09-01T07:16:19;18.70;99.90
24632;DHT22;59977;48.782;9.190;2022-09-01T07:18:47;18.90;99.90
24632;DHT22;59977;48.782;9.190;2022-09-01T07:21:13;18.80;99.90
24632;DHT22;59977;48.782;9.190;2022-09-01T07:23:39;18.60;99.90
24632;DHT22;59977;48.782;9.190;2022-09-01T07:26:08;18.60;99.90
24632;DHT22;59977;48.782;9.190;2022-09-01T07:28:34;18.70;99.90
24632;DHT22;59977;48.782;9.190;2022-09-01T07:31:00;18.60;99.90
24632;DHT22;59977;48.782;9.190;2022-09-01T07:33:26;18.80;99.90
24632;DHT22;59977;48.782;9.190;2022-09-01T07:35:54;19.20;99.90
24632;DHT22;59977;48.782;9.190;2022-09-01T07:38:22;19.50;99.90
24632;DHT22;59977;48.782;9.190;2022-09-01T20:19:52;22.40;99.90
24632;DHT22;59977;48.782;9.190;2022-09-01T20:25:20;20.70;99.90
24632;DHT22;59977;48.782;9.190;2022-09-01T20:30:35;20.80;99.90
24632;DHT22;59977;48.782;9.190;2022-09-01T20:41:10;20.80;99.90
24632;DHT22;59977;48.782;9.190;2022-09-01T20:43:40;20.80;99.90
24632;DHT22;59977;48.782;9.190;2022-09-01T20:46:08;21.10;99.90
24632;DHT22;59977;48.782;9.190;2022-09-01T20:48:39;20.70;99.90
24632;DHT22;59977;48.782;9.190;2022-09-01T20:51:13;20.60;99.90
24632;DHT22;59977;48.782;9.190;2022-09-01T20:53:53;20.50;99.90
24632;DHT22;59977;48.782;9.190;2022-09-01T20:59:14;20.60;99.90
24632;DHT22;59977;48.782;9.190;2022-09-01T21:02:03;20.50;99.90
24632;DHT22;59977;48.782;9.190;2022-09-01T21:10:21;20.50;99.90
24632;DHT22;59977;48.782;9.190;2022-09-01T21:16:17;20.50;99.90
24632;DHT22;59977;48.782;9.190;2022-09-01T21:21:41;20.40;99.90
24632;DHT22;59977;48.782;9.190;2022-09-01T21:24:09;20.30;99.90
24632;DHT22;59977;48.782;9.190;2022-09-01T21:26:36;20.30;99.90
24632;DHT22;59977;48.782;9.190;2022-09-01T21:29:21;20.20;99.90
24632;DHT22;59977;48.782;9.190;2022-09-01T21:31:47;20.20;99.90
24632;DHT22;59977;48.782;9.190;2022-09-01T21:34:13;20.30;99.90
24632;DHT22;59977;48.782;9.190;2022-09-01T21:36:38;20.10;99.90
24632;DHT22;59977;48.782;9.190;2022-09-01T21:39:04;20.10;99.90
24632;DHT22;59977;48.782;9.190;2022-09-01T21:41:30;20.10;99.90
24632;DHT22;59977;48.782;9.190;2022-09-01T21:43:55;20.10;99.90
24632;DHT22;59977;48.782;9.190;2022-09-01T21:46:21;20.20;99.90
24632;DHT22;59977;48.782;9.190;2022-09-01T21:48:46;20.10;99.90
24632;DHT22;59977;48.782;9.190;2022-09-01T21:51:12;20.20;99.90
24632;DHT22;59977;48.782;9.190;2022-09-01T21:53:38;20.20;99.90
24632;DHT22;59977;48.782;9.190;2022-09-01T21:56:03;20.40;99.90
24632;DHT22;59977;48.782;9.190;2022-09-01T21:58:29;20.10;99.90
24632;DHT22;59977;48.782;9.190;2022-09-01T22:00:55;20.10;99.90
24632;DHT22;59977;48.782;9.190;2022-09-01T22:03:21;20.00;99.90
24632;DHT22;59977;48.782;9.190;2022-09-01T22:05:47;20.00;99.90
24632;DHT22;59977;48.782;9.190;2022-09-01T22:08:14;20.00;99.90
24632;DHT22;59977;48.782;9.190;2022-09-01T22:10:44;19.90;99.90
24632;DHT22;59977;48.782;9.190;2022-09-01T22:13:10;20.40;99.90
24632;DHT22;59977;48.782;9.190;2022-09-01T22:15:45;19.90;99.90
24632;DHT22;59977;48.782;9.190;2022-09-01T22:18:13;19.80;99.90
24632;DHT22;59977;48.782;9.190;2022-09-01T22:20:40;19.80;99.90
24632;DHT22;59977;48.782;9.190;2022-09-01T22:23:06;19.80;99.90
24632;DHT22;59977;48.782;9.190;2022-09-01T22:25:33;19.80;99.90
24632;DHT22;59977;48.782;9.190;2022-09-01T22:28:01;19.70;99.90
24632;DHT22;59977;48.782;9.190;2022-09-01T22:30:28;19.70;99.90
24632;DHT22;59977;48.782;9.190;2022-09-01T22:32:53;19.70;99.90
24632;DHT22;59977;48.782;9.190;2022-09-01T22:35:19;19.70;99.90
24632;DHT22;59977;48.782;9.190;2022-09-01T22:37:45;19.70;99.90
